Time;durP1;ratioP1;P1;durP2;ratioP2;P2;SDS_P1;SDS_P2;PMS_P1;PMS_P2;Temp;Humidity;BMP_temperature;BMP_pressure;BME280_temperature;BME280_humidity;BME280_pressure;Samples;Min_cycle;Max_cycle;Signal;HPM_P1;HPM_P2
2023/07/14 00:01:29;;;;;;;18.10;12.55;;;;;;;;;;5094375;28;20047;-76
2023/07/14 00:03:56;;;;;;;18.42;11.82;;;;;;;;;;5078052;28;20036;-75
2023/07/14 00:06:22;;;;;;;20.70;12.43;;;;;;;;;;5094143;28;20503;-76
2023/07/14 00:08:49;;;;;;;20.95;13.35;;;;;;;;;;5094595;28;20124;-75
2023/07/14 00:11:23;;;;;;;18.80;13.32;;;;;;;;;;5080227;28;20062;-75
2023/07/14 00:13:50;;;;;;;22.10;11.85;;;;;;;;;;5094415;28;20048;-75
2023/07/14 00:16:18;;;;;;;16.90;11.93;;;;;;;;;;5094082;28;20040;-75
2023/07/14 00:18:44;;;;;;;20.55;12.02;;;;;;;;;;5095456;28;20032;-71
2023/07/14 00:21:18;;;;;;;17.17;11.98;;;;;;;;;;5093468;28;20043;-71
2023/07/14 00:23:44;;;;;;;17.15;11.52;;;;;;;;;;5094516;28;20166;-71
2023/07/14 00:26:15;;;;;;;19.42;11.30;;;;;;;;;;5075931;28;20501;-72
2023/07/14 00:28:42;;;;;;;17.38;12.10;;;;;;;;;;5094316;28;20047;-72
2023/07/14 00:31:15;;;;;;;20.42;11.80;;;;;;;;;;5075470;28;20124;-71
2023/07/14 00:33:42;;;;;;;17.88;11.70;;;;;;;;;;5093352;28;20504;-71
2023/07/14 00:36:08;;;;;;;17.58;11.90;;;;;;;;;;5092972;28;20481;-71
2023/07/14 00:38:34;;;;;;;17.65;11.48;;;;;;;;;;5092697;28;20051;-71
2023/07/14 00:41:01;;;;;;;15.80;11.10;;;;;;;;;;5093122;28;20562;-71
2023/07/14 00:43:29;;;;;;;16.80;11.98;;;;;;;;;;5092079;28;20028;-72
2023/07/14 00:45:56;;;;;;;18.98;11.32;;;;;;;;;;5092832;28;20492;-71
2023/07/14 00:48:27;;;;;;;16.15;11.30;;;;;;;;;;5092466;28;20445;-71
2023/07/14 00:51:13;;;;;;;18.88;11.77;;;;;;;;;;5092825;28;20040;-71
2023/07/14 00:53:41;;;;;;;22.98;11.90;;;;;;;;;;5093028;28;20058;-71
2023/07/14 00:56:13;;;;;;;18.08;11.77;;;;;;;;;;5091967;28;20035;-71
2023/07/14 00:58:41;;;;;;;16.88;11.70;;;;;;;;;;5092558;28;20127;-71
2023/07/14 01:01:10;;;;;;;16.88;10.85;;;;;;;;;;5093373;28;20044;-71
2023/07/14 01:03:40;;;;;;;18.98;11.82;;;;;;;;;;5092664;28;20090;-72
2023/07/14 01:06:15;;;;;;;19.42;11.70;;;;;;;;;;5092215;28;20032;-71
2023/07/14 01:09:03;;;;;;;17.95;11.13;;;;;;;;;;5094042;28;20484;-71
2023/07/14 01:11:35;;;;;;;16.35;11.35;;;;;;;;;;5074777;28;20101;-71
2023/07/14 01:14:02;;;;;;;20.35;11.13;;;;;;;;;;5092073;28;20147;-71
2023/07/14 01:16:30;;;;;;;17.52;11.70;;;;;;;;;;5092654;28;20469;-71
2023/07/14 01:18:56;;;;;;;18.27;12.13;;;;;;;;;;5092403;28;20369;-71
2023/07/14 01:21:23;;;;;;;15.27;10.82;;;;;;;;;;5093036;28;20040;-71
2023/07/14 01:24:10;;;;;;;18.02;11.60;;;;;;;;;;5093706;28;20454;-72
2023/07/14 01:26:52;;;;;;;19.63;11.52;;;;;;;;;;5091642;28;20044;-72
2023/07/14 01:29:19;;;;;;;17.35;10.90;;;;;;;;;;5092856;28;20089;-75
2023/07/14 01:31:45;;;;;;;17.98;11.38;;;;;;;;;;5094384;28;20043;-76
2023/07/14 01:34:11;;;;;;;15.85;10.27;;;;;;;;;;5093036;28;20458;-76
2023/07/14 01:36:37;;;;;;;14.95;10.82;;;;;;;;;;5075972;28;20520;-71
2023/07/14 01:39:03;;;;;;;18.75;10.98;;;;;;;;;;5093254;28;20036;-71
2023/07/14 01:41:30;;;;;;;18.40;10.48;;;;;;;;;;5093112;28;20051;-72
2023/07/14 01:44:00;;;;;;;18.45;11.25;;;;;;;;;;5091411;28;20074;-72
2023/07/14 01:46:27;;;;;;;16.27;10.90;;;;;;;;;;5091134;28;20122;-72
2023/07/14 01:48:59;;;;;;;17.23;10.27;;;;;;;;;;5092990;28;20075;-71
2023/07/14 01:51:27;;;;;;;17.63;10.20;;;;;;;;;;5092286;28;20036;-75
2023/07/14 01:54:01;;;;;;;16.40;9.82;;;;;;;;;;5093721;28;20111;-76
2023/07/14 01:56:28;;;;;;;14.57;9.90;;;;;;;;;;5092568;28;20055;-72
2023/07/14 01:58:56;;;;;;;17.95;10.57;;;;;;;;;;5091629;28;20040;-72
2023/07/14 02:01:23;;;;;;;16.05;10.75;;;;;;;;;;5072599;28;20036;-72
2023/07/14 02:03:51;;;;;;;16.40;10.15;;;;;;;;;;5091568;28;20526;-71
2023/07/14 02:06:17;;;;;;;13.80;9.70;;;;;;;;;;5089762;28;20044;-72
2023/07/14 02:08:46;;;;;;;16.48;10.10;;;;;;;;;;5089719;28;20113;-72
2023/07/14 02:11:20;;;;;;;15.45;9.77;;;;;;;;;;5075089;28;20485;-76
2023/07/14 02:13:46;;;;;;;15.18;9.43;;;;;;;;;;5092046;28;20058;-76
2023/07/14 02:16:14;;;;;;;16.27;9.40;;;;;;;;;;5092121;28;20101;-76
2023/07/14 02:18:41;;;;;;;13.00;9.27;;;;;;;;;;5092055;28;20043;-77
2023/07/14 02:21:09;;;;;;;15.23;8.90;;;;;;;;;;5092007;28;20048;-76
2023/07/14 02:23:37;;;;;;;15.02;9.02;;;;;;;;;;5086502;28;20449;-76
2023/07/14 02:26:07;;;;;;;15.35;8.75;;;;;;;;;;5085406;28;20048;-76
2023/07/14 02:28:33;;;;;;;16.77;9.13;;;;;;;;;;5091667;28;20035;-76
2023/07/14 02:31:09;;;;;;;11.25;7.85;;;;;;;;;;5091660;28;20064;-76
2023/07/14 02:33:37;;;;;;;11.65;7.40;;;;;;;;;;5087952;28;20032;-76
2023/07/14 02:36:13;;;;;;;14.40;7.47;;;;;;;;;;5082171;28;20104;-75
2023/07/14 02:38:40;;;;;;;13.73;7.32;;;;;;;;;;5091882;28;20127;-76
2023/07/14 02:41:21;;;;;;;14.45;7.55;;;;;;;;;;5091709;28;20051;-76
2023/07/14 02:43:55;;;;;;;12.55;6.97;;;;;;;;;;5089203;28;20123;-76
2023/07/14 02:46:24;;;;;;;10.85;6.57;;;;;;;;;;5093354;28;20123;-75
2023/07/14 02:48:51;;;;;;;12.43;6.95;;;;;;;;;;5091854;28;20084;-76
2023/07/14 02:51:17;;;;;;;13.82;7.05;;;;;;;;;;5091606;28;20119;-76
2023/07/14 02:53:43;;;;;;;12.20;6.60;;;;;;;;;;5093251;28;20061;-75
2023/07/14 02:56:10;;;;;;;11.50;6.80;;;;;;;;;;5097866;28;20059;-75
2023/07/14 02:58:36;;;;;;;11.55;6.78;;;;;;;;;;5098286;28;20044;-75
2023/07/14 03:01:03;;;;;;;15.50;6.63;;;;;;;;;;5098158;28;20058;-75
2023/07/14 03:03:29;;;;;;;10.60;6.70;;;;;;;;;;5099632;28;20518;-75
2023/07/14 03:05:56;;;;;;;11.82;7.03;;;;;;;;;;5096157;28;20443;-75
2023/07/14 03:08:22;;;;;;;10.05;6.10;;;;;;;;;;5087779;28;20081;-76
2023/07/14 03:10:49;;;;;;;13.73;6.70;;;;;;;;;;5098266;28;20036;-75
2023/07/14 03:13:17;;;;;;;10.38;6.32;;;;;;;;;;5081400;28;20465;-75
2023/07/14 03:15:43;;;;;;;11.75;6.22;;;;;;;;;;5098567;28;20496;-75
2023/07/14 03:18:09;;;;;;;12.38;6.55;;;;;;;;;;5095797;28;20089;-76
2023/07/14 03:20:37;;;;;;;12.55;6.20;;;;;;;;;;5081345;28;20374;-75
2023/07/14 03:23:03;;;;;;;15.60;6.60;;;;;;;;;;5099553;28;20035;-76
2023/07/14 03:25:29;;;;;;;13.52;6.82;;;;;;;;;;5099182;28;20043;-75
2023/07/14 03:27:55;;;;;;;12.77;5.90;;;;;;;;;;5097593;28;20036;-76
2023/07/14 03:30:22;;;;;;;11.07;5.47;;;;;;;;;;5085749;28;20063;-75
2023/07/14 03:32:50;;;;;;;12.82;6.25;;;;;;;;;;5098285;28;20448;-75
2023/07/14 03:35:18;;;;;;;11.27;6.38;;;;;;;;;;5079440;28;20040;-76
2023/07/14 03:37:45;;;;;;;13.38;5.85;;;;;;;;;;5091885;28;20044;-76
2023/07/14 03:40:11;;;;;;;10.60;5.80;;;;;;;;;;5098196;28;20048;-75
2023/07/14 03:42:38;;;;;;;11.90;6.15;;;;;;;;;;5098220;28;20485;-76
2023/07/14 03:45:05;;;;;;;12.35;6.07;;;;;;;;;;5098022;28;20048;-76
2023/07/14 03:47:32;;;;;;;14.95;6.07;;;;;;;;;;5098005;28;20492;-76
2023/07/14 03:49:58;;;;;;;12.43;5.60;;;;;;;;;;5097837;28;20044;-75
2023/07/14 03:52:24;;;;;;;12.02;5.55;;;;;;;;;;5097853;28;20040;-75
2023/07/14 03:54:50;;;;;;;14.18;6.45;;;;;;;;;;5097948;28;20040;-75
2023/07/14 03:57:16;;;;;;;11.07;6.22;;;;;;;;;;5081205;28;20044;-77
2023/07/14 03:59:43;;;;;;;12.82;6.75;;;;;;;;;;5081048;28;20130;-75
2023/07/14 04:02:09;;;;;;;11.68;5.80;;;;;;;;;;5098101;28;20412;-76
2023/07/14 04:04:35;;;;;;;15.00;6.40;;;;;;;;;;5097938;28;20044;-76
2023/07/14 04:07:02;;;;;;;13.45;7.00;;;;;;;;;;5095081;28;20519;-75
2023/07/14 04:09:28;;;;;;;10.85;6.20;;;;;;;;;;5094530;28;20032;-76
2023/07/14 04:11:54;;;;;;;11.82;6.60;;;;;;;;;;5094621;28;20062;-76
2023/07/14 04:14:20;;;;;;;11.40;6.55;;;;;;;;;;5094538;28;20058;-76
2023/07/14 04:16:47;;;;;;;11.05;6.68;;;;;;;;;;5095730;28;20052;-75
2023/07/14 04:19:13;;;;;;;13.70;6.38;;;;;;;;;;5095565;28;20039;-75
2023/07/14 04:21:39;;;;;;;10.93;6.93;;;;;;;;;;5094148;28;20071;-75
2023/07/14 04:24:05;;;;;;;11.88;6.95;;;;;;;;;;5095028;28;20047;-76
2023/07/14 04:26:31;;;;;;;11.82;6.40;;;;;;;;;;5093369;28;20101;-71
2023/07/14 04:28:58;;;;;;;16.20;6.85;;;;;;;;;;5092746;28;20044;-71
2023/07/14 04:31:24;;;;;;;14.00;6.72;;;;;;;;;;5094212;28;20077;-71
2023/07/14 04:33:51;;;;;;;16.05;6.15;;;;;;;;;;5093006;28;20048;-71
2023/07/14 04:36:17;;;;;;;11.50;5.57;;;;;;;;;;5094454;28;20043;-71
2023/07/14 04:38:45;;;;;;;12.43;5.97;;;;;;;;;;5092268;28;20062;-72
2023/07/14 04:41:15;;;;;;;14.23;6.10;;;;;;;;;;5093106;28;20054;-71
2023/07/14 04:43:41;;;;;;;10.07;5.35;;;;;;;;;;5092625;28;20074;-71
2023/07/14 04:46:07;;;;;;;15.93;5.78;;;;;;;;;;5094195;28;20044;-71
2023/07/14 04:48:33;;;;;;;10.85;5.90;;;;;;;;;;5093702;28;20032;-72
2023/07/14 04:50:59;;;;;;;8.43;5.50;;;;;;;;;;5092536;28;20039;-72
2023/07/14 04:53:25;;;;;;;14.70;5.40;;;;;;;;;;5092531;28;20101;-72
2023/07/14 04:55:51;;;;;;;9.10;5.30;;;;;;;;;;5073830;28;20047;-72
2023/07/14 04:58:18;;;;;;;12.65;5.55;;;;;;;;;;5092888;28;20040;-73
2023/07/14 05:00:45;;;;;;;8.75;5.30;;;;;;;;;;5091884;28;20040;-72
2023/07/14 05:03:11;;;;;;;14.88;5.38;;;;;;;;;;5094045;28;20044;-71
2023/07/14 05:05:37;;;;;;;10.85;5.97;;;;;;;;;;5093627;28;20032;-72
2023/07/14 05:08:04;;;;;;;10.10;5.80;;;;;;;;;;5092443;28;20052;-72
2023/07/14 05:10:36;;;;;;;15.52;6.85;;;;;;;;;;5093501;28;20582;-72
2023/07/14 05:13:02;;;;;;;12.68;6.82;;;;;;;;;;5092061;28;20490;-72
2023/07/14 05:15:28;;;;;;;12.45;7.50;;;;;;;;;;5075499;28;20051;-72
2023/07/14 05:17:55;;;;;;;15.43;7.78;;;;;;;;;;5092970;28;20504;-72
2023/07/14 05:20:21;;;;;;;15.27;8.25;;;;;;;;;;5090928;28;20059;-72
2023/07/14 05:22:50;;;;;;;16.27;9.35;;;;;;;;;;5093005;28;20044;-72
2023/07/14 05:25:16;;;;;;;13.55;9.27;;;;;;;;;;5093625;28;20455;-71
2023/07/14 05:27:44;;;;;;;16.67;10.48;;;;;;;;;;5092020;28;20043;-72
2023/07/14 05:30:11;;;;;;;14.75;10.25;;;;;;;;;;5081296;28;20602;-73
2023/07/14 05:32:38;;;;;;;13.27;9.57;;;;;;;;;;5075187;28;20032;-72
2023/07/14 05:35:06;;;;;;;14.85;9.32;;;;;;;;;;5092748;28;20107;-72
2023/07/14 05:37:32;;;;;;;15.35;8.30;;;;;;;;;;5092195;28;20044;-73
2023/07/14 05:39:58;;;;;;;11.88;7.35;;;;;;;;;;5091534;28;20043;-73
2023/07/14 05:42:24;;;;;;;15.52;6.65;;;;;;;;;;5092336;28;20433;-73
2023/07/14 05:44:50;;;;;;;10.90;6.95;;;;;;;;;;5091452;28;20157;-72
2023/07/14 05:47:17;;;;;;;9.65;6.20;;;;;;;;;;5091299;28;20123;-73
2023/07/14 05:49:43;;;;;;;11.60;6.40;;;;;;;;;;5092912;28;20127;-72
2023/07/14 05:52:12;;;;;;;10.82;6.20;;;;;;;;;;5092547;28;20038;-73
2023/07/14 05:54:38;;;;;;;10.10;5.47;;;;;;;;;;5093319;28;20040;-73
2023/07/14 05:57:04;;;;;;;9.70;5.38;;;;;;;;;;5091541;28;20032;-73
2023/07/14 05:59:30;;;;;;;14.40;5.70;;;;;;;;;;5091504;28;20043;-73
2023/07/14 06:01:56;;;;;;;12.45;5.28;;;;;;;;;;5091661;28;20100;-73
2023/07/14 06:04:22;;;;;;;12.82;5.15;;;;;;;;;;5059607;28;20044;-71
2023/07/14 06:06:49;;;;;;;14.55;5.63;;;;;;;;;;5092530;28;20044;-73
2023/07/14 06:09:16;;;;;;;7.82;5.15;;;;;;;;;;5091490;28;20040;-73
2023/07/14 06:11:42;;;;;;;14.75;5.18;;;;;;;;;;5084965;28;20043;-73
2023/07/14 06:14:09;;;;;;;12.60;5.68;;;;;;;;;;5092444;28;20075;-73
2023/07/14 06:16:35;;;;;;;8.15;5.25;;;;;;;;;;5085656;28;20127;-73
2023/07/14 06:19:01;;;;;;;8.85;5.30;;;;;;;;;;5084404;28;20083;-73
2023/07/14 06:21:27;;;;;;;9.95;4.88;;;;;;;;;;5092795;28;20043;-73
2023/07/14 06:23:53;;;;;;;8.10;4.97;;;;;;;;;;5090843;28;20086;-72
2023/07/14 06:26:19;;;;;;;8.23;4.90;;;;;;;;;;5092809;28;20485;-73
2023/07/14 06:28:45;;;;;;;6.95;4.60;;;;;;;;;;5090898;28;20123;-73
2023/07/14 06:31:13;;;;;;;7.78;4.75;;;;;;;;;;5073310;28;20407;-73
2023/07/14 06:33:39;;;;;;;7.45;4.35;;;;;;;;;;5091096;28;20044;-72
2023/07/14 06:36:06;;;;;;;9.77;4.78;;;;;;;;;;5090012;28;20476;-71
2023/07/14 06:38:32;;;;;;;9.35;4.57;;;;;;;;;;5090067;28;20040;-72
2023/07/14 06:40:59;;;;;;;8.32;4.68;;;;;;;;;;5090933;28;20055;-72
2023/07/14 06:43:25;;;;;;;10.48;4.20;;;;;;;;;;5089538;28;20075;-72
2023/07/14 06:45:51;;;;;;;9.93;4.40;;;;;;;;;;5089699;28;20385;-71
2023/07/14 06:48:17;;;;;;;9.73;4.30;;;;;;;;;;5091068;28;20040;-71
2023/07/14 06:50:45;;;;;;;14.05;4.60;;;;;;;;;;5091769;28;20096;-72
2023/07/14 06:53:11;;;;;;;6.72;4.13;;;;;;;;;;5090832;28;20044;-73
2023/07/14 06:55:40;;;;;;;10.95;4.45;;;;;;;;;;5074558;28;20123;-76
2023/07/14 06:58:07;;;;;;;6.47;4.40;;;;;;;;;;5091322;28;20512;-71
2023/07/14 07:00:34;;;;;;;16.50;4.43;;;;;;;;;;5090790;28;20493;-72
2023/07/14 07:03:04;;;;;;;8.88;4.20;;;;;;;;;;5080888;28;20048;-70
2023/07/14 07:05:30;;;;;;;5.63;3.40;;;;;;;;;;5090842;28;20566;-72
2023/07/14 07:07:56;;;;;;;33.97;4.63;;;;;;;;;;5092014;28;20396;-70
2023/07/14 07:10:22;;;;;;;6.80;3.30;;;;;;;;;;5092167;28;20465;-71
2023/07/14 07:12:49;;;;;;;7.57;3.67;;;;;;;;;;5092055;28;20040;-72
2023/07/14 07:15:15;;;;;;;5.88;3.58;;;;;;;;;;5091624;28;20083;-71
2023/07/14 07:17:42;;;;;;;7.43;3.50;;;;;;;;;;5090720;28;20048;-72
2023/07/14 07:20:08;;;;;;;7.63;3.80;;;;;;;;;;5091946;28;20058;-72
2023/07/14 07:22:37;;;;;;;5.10;3.30;;;;;;;;;;5091748;28;20040;-72
2023/07/14 07:25:04;;;;;;;6.35;3.03;;;;;;;;;;5076394;28;20028;-75
2023/07/14 07:27:30;;;;;;;8.57;3.00;;;;;;;;;;5092762;28;20036;-74
2023/07/14 07:29:56;;;;;;;6.85;2.83;;;;;;;;;;5091964;28;20036;-75
2023/07/14 07:32:22;;;;;;;6.50;3.00;;;;;;;;;;5090796;28;20489;-75
2023/07/14 07:34:48;;;;;;;10.45;2.95;;;;;;;;;;5090554;28;20051;-75
2023/07/14 07:37:14;;;;;;;6.72;2.33;;;;;;;;;;5092261;28;20044;-72
2023/07/14 07:39:40;;;;;;;6.82;2.55;;;;;;;;;;5091904;28;20104;-72
2023/07/14 07:42:07;;;;;;;4.15;2.42;;;;;;;;;;5093183;28;20042;-72
2023/07/14 07:44:33;;;;;;;5.40;2.70;;;;;;;;;;5093955;28;20122;-71
2023/07/14 07:47:00;;;;;;;6.13;2.22;;;;;;;;;;5095616;28;20036;-71
2023/07/14 07:49:26;;;;;;;11.00;2.38;;;;;;;;;;5094342;28;20036;-71
2023/07/14 07:51:53;;;;;;;6.88;2.30;;;;;;;;;;5077554;28;20039;-75
2023/07/14 07:54:19;;;;;;;5.38;2.90;;;;;;;;;;5094120;28;20115;-75
2023/07/14 07:56:45;;;;;;;6.88;2.33;;;;;;;;;;5095910;28;20036;-74
2023/07/14 07:59:15;;;;;;;5.03;2.60;;;;;;;;;;5076998;28;20117;-73
2023/07/14 08:01:41;;;;;;;3.83;2.22;;;;;;;;;;5096132;28;20083;-75
2023/07/14 08:04:07;;;;;;;8.70;2.63;;;;;;;;;;5093775;28;20047;-71
2023/07/14 08:06:36;;;;;;;6.15;2.40;;;;;;;;;;5077013;28;20052;-71
2023/07/14 08:09:03;;;;;;;8.55;2.47;;;;;;;;;;5094732;28;20043;-75
2023/07/14 08:11:29;;;;;;;6.68;2.50;;;;;;;;;;5093605;28;20036;-75
2023/07/14 08:13:55;;;;;;;12.38;2.50;;;;;;;;;;5094411;28;20040;-74
2023/07/14 08:16:21;;;;;;;8.10;2.50;;;;;;;;;;5076684;28;20057;-74
2023/07/14 08:18:47;;;;;;;4.45;2.47;;;;;;;;;;5077276;28;20097;-74
2023/07/14 08:21:13;;;;;;;8.68;2.47;;;;;;;;;;5093460;28;20055;-75
2023/07/14 08:23:40;;;;;;;5.32;2.63;;;;;;;;;;5094156;28;20551;-74
2023/07/14 08:26:07;;;;;;;7.80;2.40;;;;;;;;;;5093202;28;20083;-74
2023/07/14 08:28:33;;;;;;;5.57;2.80;;;;;;;;;;5095350;28;20096;-74
2023/07/14 08:31:01;;;;;;;9.18;2.90;;;;;;;;;;5081272;28;20059;-74
2023/07/14 08:33:28;;;;;;;6.45;2.97;;;;;;;;;;5109865;28;20039;-75
2023/07/14 08:35:54;;;;;;;7.50;2.95;;;;;;;;;;5093729;28;20505;-73
2023/07/14 08:38:21;;;;;;;8.02;3.17;;;;;;;;;;5093099;28;20288;-74
2023/07/14 08:40:51;;;;;;;12.00;3.05;;;;;;;;;;5093379;28;20044;-73
2023/07/14 08:43:25;;;;;;;6.47;2.80;;;;;;;;;;5094180;28;20040;-74
2023/07/14 08:45:53;;;;;;;6.38;2.47;;;;;;;;;;5093600;28;20055;-74
2023/07/14 08:48:37;;;;;;;6.50;3.00;;;;;;;;;;5091295;28;20044;-75
2023/07/14 08:51:17;;;;;;;7.68;2.80;;;;;;;;;;5100348;28;20040;-74
2023/07/14 08:53:47;;;;;;;6.70;2.65;;;;;;;;;;5092337;28;20036;-71
2023/07/14 08:56:16;;;;;;;6.55;3.05;;;;;;;;;;5094460;28;20123;-70
2023/07/14 08:58:44;;;;;;;6.03;3.00;;;;;;;;;;5093969;28;20040;-70
2023/07/14 09:01:22;;;;;;;12.40;3.20;;;;;;;;;;5093766;28;20039;-72
2023/07/14 09:03:50;;;;;;;4.82;2.70;;;;;;;;;;5094344;28;20497;-71
2023/07/14 09:06:16;;;;;;;9.32;3.15;;;;;;;;;;5093943;28;20048;-70
2023/07/14 09:08:42;;;;;;;6.20;2.80;;;;;;;;;;5093965;28;20036;-70
2023/07/14 09:11:27;;;;;;;5.80;3.00;;;;;;;;;;5094234;28;20032;-70
2023/07/14 09:14:05;;;;;;;4.15;2.58;;;;;;;;;;5075810;28;20416;-69
2023/07/14 09:16:34;;;;;;;6.78;2.53;;;;;;;;;;5093515;28;20420;-70
2023/07/14 09:19:03;;;;;;;5.50;2.88;;;;;;;;;;5093604;28;20123;-71
2023/07/14 09:21:39;;;;;;;6.28;2.75;;;;;;;;;;5091930;28;20115;-71
2023/07/14 09:24:24;;;;;;;7.72;2.95;;;;;;;;;;5092559;28;20044;-70
2023/07/14 09:26:53;;;;;;;8.63;2.38;;;;;;;;;;5080417;28;20405;-71
2023/07/14 09:29:21;;;;;;;6.75;3.30;;;;;;;;;;5075130;28;20392;-71
2023/07/14 09:31:51;;;;;;;8.38;2.97;;;;;;;;;;5092107;28;20124;-70
2023/07/14 09:34:23;;;;;;;6.35;3.13;;;;;;;;;;5092348;28;20481;-70
2023/07/14 09:36:50;;;;;;;4.47;2.60;;;;;;;;;;5075223;28;20133;-70
2023/07/14 09:39:30;;;;;;;6.15;2.67;;;;;;;;;;5091878;28;20040;-71
2023/07/14 09:41:58;;;;;;;7.82;2.92;;;;;;;;;;5092056;28;20540;-71
2023/07/14 09:44:24;;;;;;;4.93;2.47;;;;;;;;;;5092771;28;20031;-70
2023/07/14 09:46:51;;;;;;;7.70;2.60;;;;;;;;;;5091767;28;20040;-70
2023/07/14 09:49:36;;;;;;;6.05;2.78;;;;;;;;;;5091206;28;20435;-70
2023/07/14 09:52:08;;;;;;;5.50;2.70;;;;;;;;;;5092873;28;20115;-70
2023/07/14 09:54:35;;;;;;;18.95;2.78;;;;;;;;;;5091467;28;20122;-71
2023/07/14 09:57:03;;;;;;;6.60;2.50;;;;;;;;;;5074661;28;20083;-77
2023/07/14 09:59:29;;;;;;;4.80;2.25;;;;;;;;;;5090461;28;20046;-71
2023/07/14 10:01:57;;;;;;;5.47;2.40;;;;;;;;;;5089857;28;20040;-72
2023/07/14 10:04:27;;;;;;;5.57;2.42;;;;;;;;;;5090805;28;20044;-71
2023/07/14 10:06:54;;;;;;;5.32;2.60;;;;;;;;;;5091367;28;20421;-74
2023/07/14 10:09:22;;;;;;;6.43;2.38;;;;;;;;;;5092991;28;20039;-74
2023/07/14 10:11:54;;;;;;;8.00;2.83;;;;;;;;;;5093085;28;20040;-74
2023/07/14 10:14:28;;;;;;;7.80;3.15;;;;;;;;;;5091166;28;20052;-75
2023/07/14 10:16:59;;;;;;;5.30;2.75;;;;;;;;;;5071405;28;20051;-74
2023/07/14 10:19:38;;;;;;;5.20;2.92;;;;;;;;;;5090963;28;20396;-74
2023/07/14 10:22:14;;;;;;;10.65;3.05;;;;;;;;;;5085814;28;20043;-75
2023/07/14 10:24:45;;;;;;;9.13;2.72;;;;;;;;;;5088724;28;20114;-74
2023/07/14 10:27:23;;;;;;;7.30;3.08;;;;;;;;;;5091239;28;20055;-75
2023/07/14 10:30:08;;;;;;;5.75;2.97;;;;;;;;;;5088115;28;20036;-74
2023/07/14 10:32:47;;;;;;;9.77;3.10;;;;;;;;;;5069337;28;20497;-73
2023/07/14 10:35:18;;;;;;;9.52;3.72;;;;;;;;;;5086279;28;20028;-74
2023/07/14 10:37:49;;;;;;;8.25;3.10;;;;;;;;;;5089218;28;20044;-74
2023/07/14 10:40:18;;;;;;;9.15;3.28;;;;;;;;;;5086528;28;20071;-74
2023/07/14 10:43:04;;;;;;;5.60;3.20;;;;;;;;;;5089760;28;20089;-73
2023/07/14 10:45:34;;;;;;;6.75;3.35;;;;;;;;;;5087091;28;20040;-73
2023/07/14 10:48:05;;;;;;;6.40;3.80;;;;;;;;;;5090885;28;20043;-75
2023/07/14 10:50:37;;;;;;;5.50;3.25;;;;;;;;;;5091676;28;20040;-75
2023/07/14 10:53:08;;;;;;;16.58;3.95;;;;;;;;;;5089728;28;20036;-73
2023/07/14 10:55:36;;;;;;;9.15;3.25;;;;;;;;;;5091877;28;20050;-73
2023/07/14 10:58:12;;;;;;;9.98;3.15;;;;;;;;;;5082841;28;20409;-73
2023/07/14 11:00:45;;;;;;;7.57;2.90;;;;;;;;;;5088771;28;20120;-73
2023/07/14 11:03:16;;;;;;;8.50;3.42;;;;;;;;;;5071142;28;20116;-74
2023/07/14 11:05:45;;;;;;;11.75;4.10;;;;;;;;;;5091288;28;20036;-72
2023/07/14 11:08:11;;;;;;;8.35;3.72;;;;;;;;;;5091520;28;20044;-72
2023/07/14 11:10:37;;;;;;;7.85;3.95;;;;;;;;;;5088522;28;20100;-71
2023/07/14 11:13:22;;;;;;;17.92;4.03;;;;;;;;;;5074005;28;20040;-69
2023/07/14 11:15:52;;;;;;;9.38;3.85;;;;;;;;;;5088929;28;20044;-71
2023/07/14 11:18:21;;;;;;;10.20;3.40;;;;;;;;;;5081803;28;20039;-73
2023/07/14 11:20:47;;;;;;;9.00;3.80;;;;;;;;;;5095236;28;20035;-73
2023/07/14 11:23:23;;;;;;;7.50;3.90;;;;;;;;;;5095483;28;20036;-71
2023/07/14 11:25:58;;;;;;;9.23;3.95;;;;;;;;;;5095111;28;20552;-74
2023/07/14 11:28:36;;;;;;;18.60;5.00;;;;;;;;;;5095523;28;20481;-69
2023/07/14 11:31:06;;;;;;;8.32;3.30;;;;;;;;;;5094332;28;20036;-71
2023/07/14 11:33:32;;;;;;;10.32;4.53;;;;;;;;;;5094533;28;20064;-69
2023/07/14 11:36:01;;;;;;;14.68;4.40;;;;;;;;;;5095554;28;20044;-69
2023/07/14 11:38:46;;;;;;;9.98;3.90;;;;;;;;;;5090401;28;20035;-68
2023/07/14 11:41:14;;;;;;;11.30;4.70;;;;;;;;;;5095869;28;20024;-69
2023/07/14 11:43:41;;;;;;;10.93;3.97;;;;;;;;;;5071748;28;20119;-69
2023/07/14 11:46:13;;;;;;;8.90;3.85;;;;;;;;;;5095747;28;20040;-68
2023/07/14 11:48:44;;;;;;;8.70;3.67;;;;;;;;;;5094749;28;20042;-69
2023/07/14 11:51:12;;;;;;;8.52;4.18;;;;;;;;;;5095325;28;20042;-69
2023/07/14 11:53:40;;;;;;;13.85;4.57;;;;;;;;;;5093454;28;20036;-69
2023/07/14 11:56:23;;;;;;;7.65;4.18;;;;;;;;;;5094979;28;20111;-69
2023/07/14 11:58:51;;;;;;;9.00;3.80;;;;;;;;;;5094664;28;20135;-69
2023/07/14 12:01:28;;;;;;;9.45;4.20;;;;;;;;;;5075541;28;20044;-69
2023/07/14 12:04:14;;;;;;;13.77;4.55;;;;;;;;;;5094013;28;20036;-70
2023/07/14 12:06:40;;;;;;;;;;;;;;;;;;5094908;28;20165;-70
2023/07/14 12:09:06;;;;;;;8.57;3.88;;;;;;;;;;5095080;28;20373;-71
2023/07/14 12:11:38;;;;;;;13.35;4.38;;;;;;;;;;5091005;28;20055;-71
2023/07/14 12:14:24;;;;;;;7.65;4.10;;;;;;;;;;5093985;28;20450;-71
2023/07/14 12:16:50;;;;;;;8.40;4.00;;;;;;;;;;5092051;28;20132;-70
2023/07/14 12:19:35;;;;;;;8.10;3.80;;;;;;;;;;5093227;28;20040;-72
2023/07/14 12:22:03;;;;;;;8.55;4.10;;;;;;;;;;5087919;28;20035;-71
2023/07/14 12:24:38;;;;;;;11.38;4.82;;;;;;;;;;5093175;28;20047;-71
2023/07/14 12:27:23;;;;;;;11.65;5.00;;;;;;;;;;5093080;28;20040;-71
2023/07/14 12:29:59;;;;;;;8.45;4.40;;;;;;;;;;5092744;28;20044;-70
2023/07/14 12:32:26;;;;;;;11.70;4.72;;;;;;;;;;5095069;28;20453;-70
2023/07/14 12:34:52;;;;;;;9.45;4.10;;;;;;;;;;5093976;28;20062;-75
2023/07/14 12:37:19;;;;;;;13.60;5.00;;;;;;;;;;5095029;28;20123;-74
2023/07/14 12:39:52;;;;;;;9.77;4.22;;;;;;;;;;5094017;28;20381;-74
2023/07/14 12:42:18;;;;;;;11.48;4.28;;;;;;;;;;5094933;28;20040;-79
2023/07/14 12:44:45;;;;;;;10.88;4.25;;;;;;;;;;5094217;28;20044;-71
2023/07/14 12:47:15;;;;;;;8.60;4.00;;;;;;;;;;5094534;28;20089;-82
2023/07/14 12:49:46;;;;;;;8.63;4.47;;;;;;;;;;5093123;28;20040;-72
2023/07/14 12:52:27;;;;;;;9.18;4.72;;;;;;;;;;5094451;28;20044;-72
2023/07/14 12:54:57;;;;;;;8.27;4.03;;;;;;;;;;5093281;28;20032;-72
2023/07/14 12:57:23;;;;;;;9.07;4.30;;;;;;;;;;5076076;28;20441;-71
2023/07/14 12:59:50;;;;;;;8.60;4.13;;;;;;;;;;5094118;28;20063;-72
2023/07/14 13:02:16;;;;;;;10.00;4.05;;;;;;;;;;5094352;28;20121;-73
2023/07/14 13:04:42;;;;;;;7.93;4.53;;;;;;;;;;5093764;28;20044;-74
2023/07/14 13:07:18;;;;;;;12.10;4.15;;;;;;;;;;5094266;28;20480;-74
2023/07/14 13:09:44;;;;;;;8.80;4.63;;;;;;;;;;5092493;28;20040;-74
2023/07/14 13:12:14;;;;;;;11.10;4.60;;;;;;;;;;5093817;28;20036;-75
2023/07/14 13:14:45;;;;;;;7.20;4.13;;;;;;;;;;5092175;28;20049;-76
2023/07/14 13:17:19;;;;;;;9.25;4.35;;;;;;;;;;5094180;28;20496;-74
2023/07/14 13:19:46;;;;;;;8.30;4.20;;;;;;;;;;5091924;28;20042;-75
2023/07/14 13:22:23;;;;;;;9.00;4.38;;;;;;;;;;5092932;28;20548;-74
2023/07/14 13:24:59;;;;;;;8.50;4.63;;;;;;;;;;5092642;28;20040;-75
2023/07/14 13:27:26;;;;;;;13.23;4.60;;;;;;;;;;5093603;28;20044;-74
2023/07/14 13:30:00;;;;;;;11.35;4.75;;;;;;;;;;5091750;28;20082;-75
2023/07/14 13:32:27;;;;;;;10.15;4.30;;;;;;;;;;5092436;28;20132;-75
2023/07/14 13:34:59;;;;;;;9.85;4.20;;;;;;;;;;5067817;28;20071;-76
2023/07/14 13:37:26;;;;;;;8.15;4.35;;;;;;;;;;5092761;28;20036;-74
2023/07/14 13:39:57;;;;;;;8.25;3.95;;;;;;;;;;5068619;28;20056;-74
2023/07/14 13:42:23;;;;;;;9.77;4.45;;;;;;;;;;5093774;28;20036;-74
2023/07/14 13:44:51;;;;;;;12.00;4.13;;;;;;;;;;5092147;28;20040;-76
2023/07/14 13:47:18;;;;;;;32.78;5.75;;;;;;;;;;5092287;28;20443;-75
2023/07/14 13:49:45;;;;;;;8.18;4.00;;;;;;;;;;5093533;28;20102;-73
2023/07/14 13:52:16;;;;;;;9.68;4.05;;;;;;;;;;5092982;28;20040;-74
2023/07/14 13:54:48;;;;;;;6.63;3.60;;;;;;;;;;5093529;28;20036;-75
2023/07/14 13:57:14;;;;;;;6.35;3.88;;;;;;;;;;5093029;28;20031;-75
2023/07/14 13:59:44;;;;;;;7.40;4.43;;;;;;;;;;5093406;28;20583;-74
2023/07/14 14:02:23;;;;;;;8.23;4.70;;;;;;;;;;5091142;28;20068;-76
2023/07/14 14:04:50;;;;;;;13.95;4.00;;;;;;;;;;5092642;28;20108;-76
2023/07/14 14:07:16;;;;;;;9.35;3.97;;;;;;;;;;5092569;28;20396;-75
2023/07/14 14:09:42;;;;;;;12.98;3.80;;;;;;;;;;5093364;28;20434;-79
2023/07/14 14:12:08;;;;;;;10.48;3.65;;;;;;;;;;5090909;28;20055;-72
2023/07/14 14:14:34;;;;;;;6.28;3.03;;;;;;;;;;5085289;28;20044;-76
2023/07/14 14:17:00;;;;;;;5.95;2.75;;;;;;;;;;5092468;28;20129;-76
2023/07/14 14:19:27;;;;;;;4.15;2.70;;;;;;;;;;5092647;28;20162;-71
2023/07/14 14:21:58;;;;;;;5.25;2.60;;;;;;;;;;5079777;28;20047;-74
2023/07/14 14:24:24;;;;;;;5.47;2.80;;;;;;;;;;5092659;28;20061;-73
2023/07/14 14:26:50;;;;;;;7.43;3.25;;;;;;;;;;5074306;28;20404;-74
2023/07/14 14:29:18;;;;;;;4.53;2.67;;;;;;;;;;5091524;28;20035;-75
2023/07/14 14:31:44;;;;;;;4.93;2.90;;;;;;;;;;5092830;28;20115;-75
2023/07/14 14:34:11;;;;;;;5.88;2.80;;;;;;;;;;5091381;28;20036;-76
2023/07/14 14:36:37;;;;;;;6.70;3.50;;;;;;;;;;5091476;28;20433;-76
2023/07/14 14:39:06;;;;;;;8.65;3.58;;;;;;;;;;5091152;28;20400;-75
2023/07/14 14:41:32;;;;;;;8.63;3.45;;;;;;;;;;5092556;28;20429;-80
2023/07/14 14:43:58;;;;;;;7.38;3.90;;;;;;;;;;5092467;28;20040;-78